Time;durP1;ratioP1;P1;durP2;ratioP2;P2;SDS_P1;SDS_P2;PMS_P1;PMS_P2;Temp;Humidity;BMP_temperature;BMP_pressure;BME280_temperature;BME280_humidity;BME280_pressure;Samples;Min_cycle;Max_cycle;Signal;HPM_P1;HPM_P2
2023/12/06 00:01:24;;;;;;;56.35;38.38;;;;;;;7.63;100.00;102143.16;5131828;27;20019;-76
2023/12/06 00:03:49;;;;;;;54.22;37.63;;;;;;;7.76;100.00;102205.84;5112742;27;20050;-76
2023/12/06 00:06:15;;;;;;;54.22;37.63;;;;;;;8.04;100.00;102278.19;5132112;27;20111;-76
2023/12/06 00:08:40;;;;;;;58.05;39.78;;;;;;;8.02;100.00;102254.50;5131078;27;20055;-76
2023/12/06 00:11:06;;;;;;;56.47;39.33;;;;;;;8.00;100.00;102327.06;5131614;27;20058;-76
2023/12/06 00:13:31;;;;;;;60.95;41.05;;;;;;;7.71;100.00;102285.94;5131712;27;20023;-76
2023/12/06 00:15:57;;;;;;;74.90;49.03;;;;;;;7.99;100.00;102306.75;5131835;27;20027;-76
2023/12/06 00:18:22;;;;;;;84.18;53.05;;;;;;;7.90;100.00;102323.47;5130379;27;20439;-76
2023/12/06 00:20:48;;;;;;;86.47;54.85;;;;;;;7.56;100.00;102282.22;5132105;27;20102;-76
2023/12/06 00:23:13;;;;;;;87.95;55.90;;;;;;;8.02;100.00;102355.81;5132025;27;20420;-77
2023/12/06 00:25:39;;;;;;;88.38;57.47;;;;;;;7.72;100.00;102333.22;5129504;27;20038;-76
2023/12/06 00:28:04;;;;;;;88.35;56.95;;;;;;;7.60;100.00;102340.56;5112515;27;20027;-77
2023/12/06 00:30:30;;;;;;;79.22;53.00;;;;;;;8.04;100.00;102420.03;5131044;27;20033;-74
2023/12/06 00:32:55;;;;;;;85.93;55.88;;;;;;;7.82;100.00;102390.81;5130657;27;20035;-76
2023/12/06 00:35:21;;;;;;;84.70;55.85;;;;;;;7.54;100.00;102363.19;5130976;27;20059;-76
2023/12/06 00:37:46;;;;;;;94.38;60.28;;;;;;;7.46;100.00;102357.09;5129865;27;20023;-75
2023/12/06 00:40:12;;;;;;;98.72;62.45;;;;;;;7.86;100.00;102447.47;5130704;27;20042;-76
2023/12/06 00:42:38;;;;;;;104.78;65.53;;;;;;;7.72;100.00;102449.69;5130464;27;20043;-76
2023/12/06 00:45:04;;;;;;;98.65;62.97;;;;;;;7.26;100.00;102430.81;5131069;27;20042;-77
2023/12/06 00:47:29;;;;;;;99.32;60.47;;;;;;;7.39;100.00;102480.94;5130926;27;20023;-77
2023/12/06 00:49:55;;;;;;;105.68;65.65;;;;;;;7.58;100.00;102539.63;5112615;27;20038;-76
2023/12/06 00:52:20;;;;;;;104.25;66.20;;;;;;;7.57;100.00;102592.72;5131187;27;20019;-76
2023/12/06 00:54:47;;;;;;;111.97;71.28;;;;;;;7.82;100.00;102676.16;5130753;27;20470;-76
2023/12/06 00:57:13;;;;;;;102.70;64.32;;;;;;;7.90;100.00;102731.22;5111882;27;20118;-76
2023/12/06 00:59:39;;;;;;;101.30;63.55;;;;;;;7.74;100.00;102726.56;5130752;27;20110;-76
2023/12/06 01:02:05;;;;;;;100.55;65.90;;;;;;;7.54;100.00;102752.13;5111902;27;20054;-74
2023/12/06 01:04:30;;;;;;;104.47;67.35;;;;;;;7.55;100.00;102752.19;5112151;27;20027;-76
2023/12/06 01:06:57;;;;;;;105.40;64.88;;;;;;;7.61;100.00;102779.34;5112313;27;20050;-75
2023/12/06 01:09:22;;;;;;;101.82;67.47;;;;;;;7.84;100.00;102856.84;5111463;27;20054;-75
2023/12/06 01:11:48;;;;;;;106.22;69.00;;;;;;;7.83;100.00;102885.50;5130206;27;20019;-75
2023/12/06 01:14:13;;;;;;;108.28;69.25;;;;;;;7.41;100.00;102824.31;5130646;27;20064;-75
2023/12/06 01:16:39;;;;;;;98.10;64.07;;;;;;;7.27;100.00;102837.34;5129858;27;20401;-74
2023/12/06 01:19:04;;;;;;;91.53;59.17;;;;;;;7.84;100.00;102991.91;5130181;27;20481;-76
2023/12/06 01:21:30;;;;;;;96.72;63.33;;;;;;;7.81;100.00;103034.91;5112034;27;20022;-75
2023/12/06 01:23:55;;;;;;;87.70;57.25;;;;;;;7.73;100.00;103071.78;5130187;27;20106;-75
2023/12/06 01:26:21;;;;;;;84.65;57.40;;;;;;;7.80;100.00;103113.38;5129585;27;20031;-75
2023/12/06 01:28:46;;;;;;;93.03;60.53;;;;;;;7.84;100.00;103121.09;5128844;27;20085;-75
2023/12/06 01:31:12;;;;;;;95.50;59.58;;;;;;;7.38;100.00;103057.06;5129727;27;20035;-76
2023/12/06 01:33:37;;;;;;;86.32;56.47;;;;;;;7.89;100.00;103141.53;5130154;27;20035;-76
2023/12/06 01:36:03;;;;;;;85.55;55.30;;;;;;;7.92;100.00;103138.25;5129201;27;20114;-76
2023/12/06 01:38:28;;;;;;;82.93;52.65;;;;;;;7.48;100.00;103084.41;5129435;27;20066;-76
2023/12/06 01:40:54;;;;;;;68.65;42.42;;;;;;;7.41;100.00;103086.66;5110928;27;20035;-75
2023/12/06 01:43:20;;;;;;;62.67;39.65;;;;;;;7.43;100.00;103115.41;5129707;27;20031;-77
2023/12/06 01:45:45;;;;;;;59.95;37.70;;;;;;;7.78;100.00;103211.22;5130052;27;20038;-76
2023/12/06 01:48:12;;;;;;;59.15;36.03;;;;;;;7.36;100.00;103182.69;5130010;27;20481;-76
2023/12/06 01:50:38;;;;;;;69.95;43.08;;;;;;;7.75;100.00;103289.59;5127815;27;20098;-76
2023/12/06 01:53:04;;;;;;;58.33;35.70;;;;;;;7.36;100.00;103314.28;5129606;27;20034;-76
2023/12/06 01:55:31;;;;;;;54.67;32.58;;;;;;;7.71;100.00;103442.25;5129159;27;20594;-76
2023/12/06 01:57:57;;;;;;;55.45;32.47;;;;;;;7.80;100.00;103514.38;5129773;27;20031;-76
2023/12/06 02:00:24;;;;;;;55.92;32.67;;;;;;;7.33;100.00;103482.88;5129154;27;20034;-76
2023/12/06 02:02:50;;;;;;;53.22;32.85;;;;;;;7.31;100.00;103522.44;5130034;27;20027;-76
2023/12/06 02:05:16;;;;;;;51.20;30.60;;;;;;;7.66;100.00;103642.16;5129927;27;20027;-76
2023/12/06 02:07:43;;;;;;;52.55;31.67;;;;;;;7.76;100.00;103770.88;5128180;27;20050;-76
2023/12/06 02:10:09;;;;;;;56.45;33.85;;;;;;;7.72;100.00;103828.97;5110761;27;20500;-75
2023/12/06 02:12:35;;;;;;;54.70;33.63;;;;;;;7.37;100.00;103819.72;5129397;27;20019;-76
2023/12/06 02:15:01;;;;;;;60.58;34.00;;;;;;;7.47;100.00;103881.75;5129576;27;20041;-76
2023/12/06 02:17:28;;;;;;;58.58;35.97;;;;;;;7.19;100.00;103959.72;5128950;27;20041;-75
2023/12/06 02:19:54;;;;;;;64.15;35.83;;;;;;;7.09;100.00;104109.31;5129794;27;20039;-77
2023/12/06 02:22:21;;;;;;;61.47;35.45;;;;;;;6.86;100.00;104222.78;5129276;28;20019;-76
2023/12/06 02:24:51;;;;;;;64.18;36.30;;;;;;;6.71;100.00;104352.56;5111027;28;20062;-75
2023/12/06 02:27:17;;;;;;;63.47;35.58;;;;;;;7.63;100.00;104689.66;5129452;28;20023;-76
2023/12/06 02:29:42;;;;;;;67.80;38.47;;;;;;;7.34;100.00;104770.59;5110350;28;20038;-76
2023/12/06 02:32:08;;;;;;;78.53;45.05;;;;;;;7.63;100.00;104917.66;5128976;28;20027;-76
2023/12/06 02:34:35;;;;;;;94.90;61.13;;;;;;;7.52;100.00;104992.06;5128850;28;20202;-76
2023/12/06 02:37:04;;;;;;;94.35;58.55;;;;;;;7.45;100.00;105032.97;5128985;28;21558;-76
2023/12/06 02:39:34;;;;;;;104.72;66.25;;;;;;;7.35;100.00;105072.00;5108976;28;20119;-76
2023/12/06 02:42:00;;;;;;;102.80;61.65;;;;;;;7.63;100.00;105151.59;5128540;28;20023;-76
2023/12/06 02:44:26;;;;;;;94.68;61.65;;;;;;;7.75;100.00;105197.16;5110659;28;20079;-76
2023/12/06 02:46:52;;;;;;;82.97;51.55;;;;;;;7.50;100.00;105222.47;5110507;28;20027;-75
2023/12/06 02:49:17;;;;;;;77.82;50.78;;;;;;;7.88;100.00;105345.09;5129285;28;20046;-77
2023/12/06 02:51:43;;;;;;;84.78;53.33;;;;;;;7.66;100.00;105328.28;5110820;28;20027;-76
2023/12/06 02:54:09;;;;;;;83.60;52.35;;;;;;;7.96;100.00;105345.63;5126718;27;20478;-76
2023/12/06 02:56:35;;;;;;;92.55;56.10;;;;;;;7.90;100.00;105340.16;5110114;28;20053;-76
2023/12/06 02:59:00;;;;;;;84.22;55.40;;;;;;;7.97;100.00;105316.06;5128521;27;20027;-76
2023/12/06 03:01:26;;;;;;;94.90;57.80;;;;;;;7.23;100.00;105186.75;5110136;28;20052;-76
2023/12/06 03:03:51;;;;;;;87.22;53.97;;;;;;;7.28;100.00;105195.53;5129131;28;20035;-76
2023/12/06 03:06:17;;;;;;;81.50;51.50;;;;;;;7.30;100.00;105205.00;5128101;28;20035;-74
2023/12/06 03:08:42;;;;;;;84.25;52.42;;;;;;;7.76;100.00;105280.00;5128402;28;20114;-75
2023/12/06 03:11:08;;;;;;;78.88;49.97;;;;;;;7.69;100.00;105227.13;5129205;28;20112;-76
2023/12/06 03:13:33;;;;;;;69.68;42.25;;;;;;;7.58;100.00;105185.00;5128523;28;20095;-76
2023/12/06 03:15:59;;;;;;;66.85;40.38;;;;;;;7.31;100.00;105157.78;5128389;28;20031;-75
2023/12/06 03:18:24;;;;;;;66.88;38.90;;;;;;;7.69;100.00;105287.94;5128710;28;20031;-76
2023/12/06 03:20:49;;;;;;;68.22;39.17;;;;;;;7.74;100.00;105383.78;5128947;28;20012;-75
2023/12/06 03:23:15;;;;;;;67.53;39.40;;;;;;;7.33;100.00;105346.16;5108202;28;20027;-76
2023/12/06 03:25:41;;;;;;;67.80;38.20;;;;;;;7.38;100.00;105380.28;5109489;28;20038;-76
2023/12/06 03:28:06;;;;;;;68.25;38.58;;;;;;;7.46;100.00;105470.38;5128182;27;20104;-77
2023/12/06 03:30:32;;;;;;;66.85;37.10;;;;;;;7.13;100.00;105457.75;5131883;27;20035;-76
2023/12/06 03:32:57;;;;;;;73.75;39.38;;;;;;;7.52;100.00;105708.94;5132416;27;20132;-75
2023/12/06 03:35:23;;;;;;;66.78;37.67;;;;;;;7.56;100.00;105782.78;5132342;27;20023;-76
2023/12/06 03:37:48;;;;;;;70.45;38.85;;;;;;;7.53;100.00;105923.50;5130247;27;20088;-76
2023/12/06 03:40:14;;;;;;;71.60;40.70;;;;;;;7.70;100.00;106100.63;5113984;27;20047;-75
2023/12/06 03:42:39;;;;;;;69.38;39.60;;;;;;;7.78;100.00;106221.28;5112363;27;20473;-76
2023/12/06 03:45:06;;;;;;;65.93;37.90;;;;;;;7.76;100.00;106225.34;5113019;27;20074;-76
2023/12/06 03:47:31;;;;;;;70.63;38.72;;;;;;;7.53;100.00;106243.66;5131492;27;20042;-75
2023/12/06 03:49:57;;;;;;;65.75;38.47;;;;;;;7.59;100.00;106332.88;5131481;27;20027;-76
2023/12/06 03:52:22;;;;;;;74.30;40.78;;;;;;;7.12;100.00;106325.28;5131484;27;20031;-75
2023/12/06 03:54:48;;;;;;;68.95;39.28;;;;;;;7.12;100.00;106429.09;5131206;27;20080;-75
2023/12/06 03:57:14;;;;;;;70.55;40.38;;;;;;;7.25;100.00;106604.22;5131819;27;20028;-76
2023/12/06 03:59:39;;;;;;;69.32;38.42;;;;;;;7.51;100.00;106809.34;5130643;27;20027;-76
2023/12/06 04:02:05;;;;;;;64.80;37.33;;;;;;;7.27;100.00;106868.69;5132546;27;20039;-74
2023/12/06 04:04:30;;;;;;;64.30;36.55;;;;;;;7.38;100.00;106982.13;5131894;27;20023;-75
2023/12/06 04:06:56;;;;;;;68.90;37.75;;;;;;;7.71;100.00;107096.03;5130371;27;20023;-74
2023/12/06 04:09:21;;;;;;;77.60;40.75;;;;;;;7.27;100.00;107037.53;5130894;27;20502;-76
2023/12/06 04:11:47;;;;;;;70.75;38.15;;;;;;;7.68;100.00;107242.78;5110524;27;20027;-76
2023/12/06 04:14:13;;;;;;;74.45;41.40;;;;;;;7.61;100.00;107294.50;5132225;27;20023;-76
2023/12/06 04:16:38;;;;;;;92.00;47.47;;;;;;;7.70;100.00;107370.59;5131284;27;20035;-77
2023/12/06 04:19:04;;;;;;;78.57;43.83;;;;;;;7.56;100.00;107422.41;5131091;27;20039;-76
2023/12/06 04:21:29;;;;;;;73.05;41.72;;;;;;;7.43;100.00;107505.47;5130197;27;20485;-74
2023/12/06 04:23:55;;;;;;;68.38;38.40;;;;;;;7.51;100.00;107549.38;5130419;27;20031;-76
2023/12/06 04:26:21;;;;;;;59.80;36.08;;;;;;;7.58;100.00;107594.94;5130104;27;20050;-76
2023/12/06 04:28:46;;;;;;;61.35;35.15;;;;;;;7.90;100.00;107617.91;5128024;27;20031;-76
2023/12/06 04:31:12;;;;;;;60.33;34.58;;;;;;;7.66;100.00;107495.25;5126933;27;20447;-74
2023/12/06 04:33:37;;;;;;;43.63;27.48;;;;;;;8.26;100.00;107805.31;5112785;27;20068;-76
2023/12/06 04:36:04;;;;;;;56.80;32.33;;;;;;;7.69;100.00;107704.38;5131449;27;20028;-74
2023/12/06 04:38:30;;;;;;;56.53;32.28;;;;;;;7.77;100.00;107645.25;5094060;27;20035;-76
2023/12/06 04:40:56;;;;;;;56.30;32.05;;;;;;;8.11;100.00;107768.09;5128617;27;20027;-73
2023/12/06 04:43:21;;;;;;;53.45;30.88;;;;;;;7.63;100.00;107653.00;5129737;27;20031;-75
2023/12/06 04:45:47;;;;;;;52.78;31.08;;;;;;;8.07;100.00;107718.66;5130456;27;20106;-79
2023/12/06 04:48:12;;;;;;;55.53;31.08;;;;;;;7.51;100.00;107567.13;5111432;27;20122;-77
2023/12/06 04:50:38;;;;;;;57.25;30.92;;;;;;;7.87;100.00;107650.56;5110893;27;20023;-75
2023/12/06 04:53:03;;;;;;;53.60;30.17;;;;;;;7.47;100.00;107614.06;5130088;27;20035;-73
2023/12/06 04:55:29;;;;;;;53.50;30.17;;;;;;;7.56;100.00;107670.84;5127480;27;20035;-75
2023/12/06 04:57:54;;;;;;;63.72;34.08;;;;;;;7.74;100.00;107725.16;5129149;27;20031;-71
2023/12/06 05:00:21;;;;;;;66.93;36.55;;;;;;;7.74;100.00;107732.78;5129357;27;20047;-77
2023/12/06 05:02:47;;;;;;;71.35;39.75;;;;;;;7.85;100.00;107857.47;5128912;27;20031;-76
2023/12/06 05:05:13;;;;;;;66.45;36.40;;;;;;;7.73;100.00;107885.63;5128618;27;20027;-73
2023/12/06 05:07:38;;;;;;;61.55;33.63;;;;;;;7.87;100.00;107977.75;5128116;27;20452;-73
2023/12/06 05:10:04;;;;;;;58.08;31.88;;;;;;;7.50;100.00;107941.38;5128272;27;20031;-73
2023/12/06 05:12:30;;;;;;;54.45;30.98;;;;;;;7.99;100.00;108105.06;5109466;27;20039;-73
2023/12/06 05:14:55;;;;;;;53.15;30.60;;;;;;;7.99;100.00;108195.50;5128748;27;20504;-74
2023/12/06 05:17:21;;;;;;;56.22;29.92;;;;;;;7.83;100.00;108159.84;5129065;27;20537;-73
2023/12/06 05:19:47;;;;;;;60.15;31.15;;;;;;;7.75;100.00;108245.22;5129296;27;20034;-75
2023/12/06 05:22:12;;;;;;;60.80;30.13;;;;;;;7.46;100.00;108399.69;5128527;27;20020;-73
2023/12/06 05:24:38;;;;;;;56.35;29.00;;;;;;;7.44;100.00;108525.34;5128050;27;20019;-72
2023/12/06 05:27:03;;;;;;;56.88;29.08;;;;;;;7.76;100.00;108804.13;5127602;27;20027;-72
2023/12/06 05:29:29;;;;;;;52.88;28.95;;;;;;;7.56;100.00;108806.69;5128905;27;20504;-75
2023/12/06 05:31:54;;;;;;;57.22;29.40;;;;;;;7.94;100.00;108886.72;5128635;27;20401;-73
2023/12/06 05:34:20;;;;;;;60.88;29.85;;;;;;;7.88;100.00;108908.06;5128558;27;20949;-74
2023/12/06 05:36:45;;;;;;;57.25;30.00;;;;;;;7.40;100.00;108863.75;5108704;27;20030;-73
2023/12/06 05:39:11;;;;;;;60.63;30.65;;;;;;;7.49;100.00;109064.31;5127739;27;20057;-75
2023/12/06 05:41:37;;;;;;;66.00;31.90;;;;;;;7.76;100.00;109227.78;5128265;27;20049;-75
2023/12/06 05:44:05;;;;;;;60.90;30.92;;;;;;;7.57;100.00;109378.19;5109776;27;20035;-75
2023/12/06 05:46:30;;;;;;;64.85;31.98;;;;;;;7.46;100.00;109465.50;5109688;27;20227;-76
2023/12/06 05:48:56;;;;;;;45.20;25.13;;;;;;;9.34;100.00;110278.06;5129004;27;20105;-77
2023/12/06 05:51:22;;;;;;;45.10;24.65;;;;;;;8.77;100.00;110271.47;5109087;27;20034;-72
2023/12/06 05:53:48;;;;;;;68.20;32.15;;;;;;;7.87;100.00;110138.59;5110521;27;20523;-74
2023/12/06 05:56:14;;;;;;;59.20;30.27;;;;;;;7.91;100.00;109993.69;5110493;27;20023;-74
2023/12/06 05:58:39;;;;;;;63.40;29.63;;;;;;;8.16;100.00;110026.09;5128625;27;20030;-74
2023/12/06 06:01:05;;;;;;;59.65;28.60;;;;;;;7.96;100.00;109938.50;5128343;27;20027;-75
2023/12/06 06:03:31;;;;;;;59.90;28.13;;;;;;;7.56;100.00;109931.84;5128533;27;20043;-75
2023/12/06 06:05:56;;;;;;;54.55;26.92;;;;;;;8.00;100.00;110045.81;5128520;27;20444;-74
2023/12/06 06:08:22;;;;;;;62.67;28.30;;;;;;;7.61;100.00;110020.59;5128340;27;20126;-75
2023/12/06 06:10:49;;;;;;;51.83;28.05;;;;;;;7.80;100.00;110159.59;5127613;27;20134;-73
2023/12/06 06:13:14;;;;;;;54.45;28.20;;;;;;;7.69;100.00;110174.88;5127766;27;20110;-75
2023/12/06 06:15:39;;;;;;;57.28;28.75;;;;;;;8.02;100.00;110249.09;5109887;27;20031;-74
2023/12/06 06:18:05;;;;;;;55.78;29.08;;;;;;;8.02;100.00;110250.03;5110055;28;20094;-72
2023/12/06 06:20:33;;;;;;;53.13;26.85;;;;;;;7.66;100.00;110168.41;5128238;27;20031;-75
2023/12/06 06:22:59;;;;;;;53.10;26.95;;;;;;;7.99;100.00;110305.41;5127419;27;20023;-75
2023/12/06 06:25:24;;;;;;;52.00;25.88;;;;;;;7.89;100.00;110345.34;5109683;28;20027;-75
2023/12/06 06:27:50;;;;;;;49.55;24.85;;;;;;;7.52;100.00;110283.06;5128664;28;20102;-75
2023/12/06 06:30:16;;;;;;;47.45;25.25;;;;;;;8.12;100.00;110427.53;5128276;27;20038;-74
2023/12/06 06:32:41;;;;;;;46.75;24.70;;;;;;;7.90;100.00;110388.72;5128610;28;20108;-76
2023/12/06 06:35:07;;;;;;;45.40;23.85;;;;;;;7.89;100.00;110416.41;5127650;27;20031;-74
2023/12/06 06:37:34;;;;;;;41.55;24.15;;;;;;;7.71;100.00;110413.59;5128208;28;20027;-76
2023/12/06 06:39:59;;;;;;;44.90;23.98;;;;;;;8.34;100.00;110504.66;5128133;28;20033;-74
2023/12/06 06:42:25;;;;;;;42.75;23.63;;;;;;;8.48;100.00;110463.53;5127557;28;20090;-76
2023/12/06 06:44:51;;;;;;;42.28;23.83;;;;;;;7.78;100.00;110228.63;5127925;28;20034;-75
2023/12/06 06:47:17;;;;;;;42.50;23.65;;;;;;;8.26;100.00;110180.03;5109572;28;20027;-75
2023/12/06 06:49:45;;;;;;;38.33;22.73;;;;;;;8.29;100.00;110157.63;5108688;27;20031;-76
2023/12/06 06:52:11;;;;;;;40.83;22.38;;;;;;;8.44;100.00;110162.38;5128450;28;20065;-76
2023/12/06 06:54:36;;;;;;;38.10;22.23;;;;;;;8.08;100.00;109932.66;5128451;28;20062;-74
2023/12/06 06:57:02;;;;;;;43.28;22.92;;;;;;;8.36;100.00;109974.03;5127798;27;20031;-74
2023/12/06 06:59:28;;;;;;;40.08;23.45;;;;;;;8.12;100.00;109956.13;5109640;28;20063;-75
2023/12/06 07:01:53;;;;;;;39.30;21.90;;;;;;;7.71;100.00;109781.81;5128378;27;20031;-74
2023/12/06 07:04:19;;;;;;;39.05;22.05;;;;;;;8.13;100.00;109843.75;5131150;27;20031;-75
2023/12/06 07:06:44;;;;;;;41.45;23.35;;;;;;;8.12;100.00;109796.19;5131676;27;20027;-74
2023/12/06 07:09:10;;;;;;;33.03;19.60;;;;;;;7.96;100.00;109650.09;5113132;27;20558;-73
2023/12/06 07:11:35;;;;;;;36.88;20.15;;;;;;;7.79;100.00;109602.06;5132015;27;20028;-76
2023/12/06 07:14:03;;;;;;;38.22;22.45;;;;;;;7.96;100.00;109611.09;5131727;27;20113;-76
2023/12/06 07:16:28;;;;;;;40.88;24.55;;;;;;;8.35;100.00;109690.25;5131822;27;20084;-74
2023/12/06 07:18:53;;;;;;;47.50;27.55;;;;;;;8.09;100.00;109660.31;5131537;27;20048;-76
2023/12/06 07:21:19;;;;;;;40.25;24.73;;;;;;;8.50;100.00;109733.00;5112585;27;20100;-73
2023/12/06 07:23:45;;;;;;;31.63;19.88;;;;;;;8.16;100.00;109658.81;5113128;27;20031;-74
2023/12/06 07:26:10;;;;;;;31.80;18.23;;;;;;;8.32;100.00;109621.28;5131122;27;20043;-73
2023/12/06 07:28:36;;;;;;;30.95;18.23;;;;;;;7.72;100.00;109509.66;5131872;27;20121;-74
2023/12/06 07:31:01;;;;;;;29.17;17.55;;;;;;;8.38;100.00;109663.66;5112523;27;20092;-73
2023/12/06 07:33:27;;;;;;;27.10;16.17;;;;;;;8.07;100.00;109679.47;5112458;27;20050;-73
2023/12/06 07:35:53;;;;;;;26.77;17.50;;;;;;;8.43;100.00;109753.19;5112856;27;20035;-73
2023/12/06 07:38:19;;;;;;;29.33;17.65;;;;;;;8.05;100.00;109744.34;5131145;27;20015;-74
2023/12/06 07:40:44;;;;;;;29.55;17.73;;;;;;;8.46;100.00;109830.75;5131071;27;20030;-74
2023/12/06 07:43:10;;;;;;;30.67;18.63;;;;;;;8.39;100.00;109827.13;5130947;27;20038;-74
2023/12/06 07:45:35;;;;;;;29.55;17.45;;;;;;;8.27;100.00;109881.28;5131376;27;20027;-75
2023/12/06 07:48:02;;;;;;;25.00;16.65;;;;;;;8.66;100.00;110032.66;5130821;27;20173;-74
2023/12/06 07:50:28;;;;;;;29.63;18.73;;;;;;;8.19;100.00;109996.97;5131303;27;20497;-76
2023/12/06 07:52:53;;;;;;;28.83;17.63;;;;;;;8.69;100.00;110095.72;5131533;27;20023;-77
2023/12/06 07:55:19;;;;;;;32.65;18.65;;;;;;;8.75;100.00;110056.81;5113331;27;20038;-77
2023/12/06 07:57:44;;;;;;;30.63;18.10;;;;;;;8.82;100.00;110062.78;5131975;27;20026;-76
2023/12/06 08:00:18;;;;;;;28.58;17.35;;;;;;;8.47;100.00;109952.00;5112706;27;20035;-76
2023/12/06 08:02:43;;;;;;;32.33;17.48;;;;;;;8.74;100.00;109943.16;5130800;27;20023;-71
2023/12/06 08:05:12;;;;;;;32.05;17.60;;;;;;;8.38;100.00;109832.91;5129998;27;20034;-75
2023/12/06 08:07:39;;;;;;;30.30;17.48;;;;;;;8.50;100.00;109821.91;5112760;27;20066;-75
2023/12/06 08:10:09;;;;;;;27.60;16.13;;;;;;;8.63;100.00;109751.78;5131150;27;20034;-74
2023/12/06 08:12:34;;;;;;;31.25;17.52;;;;;;;8.81;100.00;109817.88;5130136;27;20019;-75
2023/12/06 08:15:00;;;;;;;25.20;15.30;;;;;;;8.44;100.00;109711.81;5130990;27;20397;-76
2023/12/06 08:17:25;;;;;;;30.35;17.38;;;;;;;8.31;100.00;109588.97;5130816;27;20085;-76
2023/12/06 08:19:51;;;;;;;29.63;17.63;;;;;;;8.92;100.00;109695.69;5131020;27;20504;-72
2023/12/06 08:22:16;;;;;;;24.50;15.30;;;;;;;8.71;100.00;109545.38;5112211;27;20064;-76
2023/12/06 08:24:41;;;;;;;24.73;15.60;;;;;;;8.84;100.00;109512.34;5130302;27;20030;-76
2023/12/06 08:27:07;;;;;;;23.00;14.23;;;;;;;8.97;100.00;109508.19;5131022;27;20046;-76
2023/12/06 08:29:32;;;;;;;25.83;14.50;;;;;;;8.45;100.00;109320.91;5112236;27;20031;-77
2023/12/06 08:31:58;;;;;;;21.33;13.65;;;;;;;8.94;100.00;109333.28;5130555;27;20400;-76
2023/12/06 08:34:23;;;;;;;19.65;12.93;;;;;;;8.97;100.00;109277.78;5130692;27;20087;-72
2023/12/06 08:36:48;;;;;;;21.70;13.63;;;;;;;8.68;100.00;109215.56;5130240;27;20027;-75
2023/12/06 08:39:15;;;;;;;23.35;14.02;;;;;;;9.02;100.00;109200.47;5111648;27;20031;-75
2023/12/06 08:41:40;;;;;;;21.17;12.80;;;;;;;8.65;100.00;108953.50;5130241;27;20027;-75
2023/12/06 08:44:07;;;;;;;20.40;12.40;;;;;;;8.77;100.00;108930.34;5130096;27;20741;-75
2023/12/06 08:46:32;;;;;;;22.10;13.20;;;;;;;8.61;100.00;108770.94;5110945;27;20045;-74
2023/12/06 08:48:58;;;;;;;23.45;13.25;;;;;;;8.91;100.00;108691.53;5128076;27;20027;-74
2023/12/06 08:51:23;;;;;;;20.20;12.95;;;;;;;9.04;100.00;108665.19;5129212;27;20718;-74
2023/12/06 08:53:48;;;;;;;19.75;13.05;;;;;;;9.08;100.00;108580.97;5130253;27;20481;-75
2023/12/06 08:56:14;;;;;;;22.25;12.70;;;;;;;8.75;100.00;108379.72;5130495;27;20023;-76
2023/12/06 08:58:40;;;;;;;19.48;12.45;;;;;;;9.24;100.00;108391.31;5130583;27;20028;-73
2023/12/06 09:01:05;;;;;;;21.05;12.77;;;;;;;9.28;100.00;108296.88;5111487;27;20038;-73
2023/12/06 09:03:30;;;;;;;26.23;13.85;;;;;;;9.20;100.00;108145.13;5111797;27;20026;-75
2023/12/06 09:05:57;;;;;;;21.00;12.88;;;;;;;8.72;100.00;107896.75;5130179;27;20406;-75
2023/12/06 09:08:23;;;;;;;21.77;12.43;;;;;;;9.10;100.00;107849.09;5111465;27;20043;-75
2023/12/06 09:10:52;;;;;;;21.25;11.52;;;;;;;9.13;100.00;107712.19;5129728;27;20126;-76
2023/12/06 09:13:19;;;;;;;20.25;13.60;;;;;;;8.76;100.00;107544.91;5111340;27;20043;-74
2023/12/06 09:15:44;;;;;;;21.25;12.95;;;;;;;9.07;100.00;107470.16;5129482;27;20099;-75
2023/12/06 09:18:10;;;;;;;20.77;14.02;;;;;;;9.27;100.00;107389.13;5129795;27;20118;-73
2023/12/06 09:20:36;;;;;;;18.38;12.48;;;;;;;9.23;100.00;107254.88;5129212;27;20106;-72
2023/12/06 09:23:01;;;;;;;24.52;14.80;;;;;;;9.21;100.00;107111.50;5129401;27;20610;-74
2023/12/06 09:25:27;;;;;;;24.15;14.43;;;;;;;9.29;100.00;106951.31;5128350;27;20027;-75
2023/12/06 09:27:52;;;;;;;25.05;15.15;;;;;;;9.33;100.00;106838.13;5129245;27;20087;-75
2023/12/06 09:30:18;;;;;;;22.33;13.60;;;;;;;9.16;100.00;106694.34;5128969;27;21048;-74
2023/12/06 09:32:45;;;;;;;22.75;14.27;;;;;;;9.12;100.00;106575.41;5128594;27;20065;-75
2023/12/06 09:35:10;;;;;;;18.30;12.40;;;;;;;9.17;100.00;106410.66;5129263;27;20034;-74
2023/12/06 09:37:36;;;;;;;18.58;12.55;;;;;;;9.28;100.00;106287.91;5128587;27;20031;-75
2023/12/06 09:40:02;;;;;;;20.88;12.68;;;;;;;9.27;100.00;106134.53;5110934;27;20565;-75
2023/12/06 09:42:29;;;;;;;17.83;13.40;;;;;;;9.53;100.00;106104.38;5110607;27;20034;-75
2023/12/06 09:44:55;;;;;;;21.00;13.75;;;;;;;9.05;100.00;105861.88;5128781;27;20055;-74
2023/12/06 09:47:23;;;;;;;19.75;12.27;;;;;;;8.48;100.00;105596.19;5128875;27;20027;-74
2023/12/06 09:49:49;;;;;;;21.88;13.38;;;;;;;9.46;100.00;105659.91;5128773;27;20465;-74
2023/12/06 09:52:21;;;;;;;19.83;13.70;;;;;;;9.59;100.00;105540.50;5109937;27;20040;-75
2023/12/06 09:54:49;;;;;;;22.33;13.52;;;;;;;9.44;100.00;105365.78;5109962;27;20168;-75
2023/12/06 09:57:15;;;;;;;23.05;12.90;;;;;;;9.43;100.00;105196.31;5128248;27;20038;-74
2023/12/06 09:59:41;;;;;;;23.23;15.07;;;;;;;9.23;100.00;105031.69;5128585;27;20145;-74
2023/12/06 10:02:07;;;;;;;27.52;17.15;;;;;;;9.67;100.00;104997.00;5128949;27;20118;-74
2023/12/06 10:04:34;;;;;;;23.13;14.80;;;;;;;9.41;100.00;104777.00;5128562;27;20043;-74
2023/12/06 10:07:00;;;;;;;23.73;14.70;;;;;;;9.63;100.00;104717.19;5128060;27;20050;-73
2023/12/06 10:09:25;;;;;;;26.83;14.68;;;;;;;9.66;100.00;104588.59;5128910;27;20046;-74
2023/12/06 10:11:51;;;;;;;28.80;17.88;;;;;;;9.60;100.00;104424.00;5127402;27;20032;-75
2023/12/06 10:14:18;;;;;;;23.40;16.95;;;;;;;9.33;100.00;104242.31;5110543;27;20038;-75
2023/12/06 10:16:45;;;;;;;22.00;15.35;;;;;;;9.61;100.00;104141.13;5110585;27;20035;-75
2023/12/06 10:19:19;;;;;;;27.00;16.90;;;;;;;9.76;100.00;104029.09;5127236;27;20027;-75
2023/12/06 10:21:47;;;;;;;26.38;15.95;;;;;;;9.45;100.00;103849.13;5110217;28;20050;-75
2023/12/06 10:24:13;;;;;;;23.83;14.50;;;;;;;9.74;100.00;103748.63;5128814;27;20062;-75
2023/12/06 10:26:39;;;;;;;18.33;12.20;;;;;;;9.61;100.00;103601.59;5128820;28;20148;-77
2023/12/06 10:29:05;;;;;;;18.00;11.65;;;;;;;9.56;100.00;103421.13;5109727;28;20031;-72
2023/12/06 10:31:45;;;;;;;18.00;12.85;;;;;;;9.79;100.00;103309.13;4768764;27;10000481;-73
2023/12/06 10:34:11;;;;;;;17.55;10.95;;;;;;;9.83;100.00;103176.25;5125084;28;20030;-74
2023/12/06 10:36:41;;;;;;;16.15;11.32;;;;;;;9.39;100.00;102910.97;5125380;27;20031;-74
2023/12/06 10:39:11;;;;;;;19.63;12.77;;;;;;;9.61;100.00;102804.84;5130927;27;20062;-75
2023/12/06 10:41:41;;;;;;;21.52;13.10;;;;;;;9.16;100.00;102570.31;5112610;27;20031;-73
2023/12/06 10:44:09;;;;;;;23.35;15.65;;;;;;;9.98;100.00;102554.84;5131288;27;20031;-76
2023/12/06 10:46:36;;;;;;;22.98;15.45;;;;;;;9.58;100.00;102382.34;5132261;27;20047;-75
2023/12/06 10:49:02;;;;;;;25.95;20.85;;;;;;;10.11;100.00;102324.63;5130634;27;20039;-75
2023/12/06 10:51:29;;;;;;;23.27;13.00;;;;;;;9.45;100.00;102080.84;5131898;27;20150;-77
2023/12/06 10:55:08;;;;;;;18.70;13.63;;;;;;;9.67;100.00;103809.28;5117415;27;20413;-73
2023/12/06 10:57:36;;;;;;;16.42;11.50;;;;;;;9.81;100.00;103432.00;5116659;28;20039;-73
2023/12/06 11:00:02;;;;;;;19.55;11.02;;;;;;;10.02;100.00;103214.91;5111331;27;20421;-72
2023/12/06 11:02:27;;;;;;;13.60;11.02;;;;;;;10.02;100.00;102957.34;5118230;27;20020;-72
2023/12/06 11:04:57;;;;;;;14.75;9.63;;;;;;;10.10;100.00;102763.50;5117862;27;20080;-72